Time;durP1;ratioP1;P1;durP2;ratioP2;P2;SDS_P1;SDS_P2;PMS_P1;PMS_P2;Temp;Humidity;BMP_temperature;BMP_pressure;BME280_temperature;BME280_humidity;BME280_pressure;Samples;Min_cycle;Max_cycle;Signal;HPM_P1;HPM_P2
2023/02/07 00:00:08;;;;;;;42.05;18.65;;;;;;;;;;4937890;29;20269;-75
2023/02/07 00:02:34;;;;;;;46.83;22.20;;;;;;;;;;4941232;28;20186;-76
2023/02/07 00:05:01;;;;;;;61.93;24.43;;;;;;;;;;4957558;28;20217;-77
2023/02/07 00:07:27;;;;;;;43.40;21.85;;;;;;;;;;4939529;28;20503;-76
2023/02/07 00:09:53;;;;;;;46.70;20.15;;;;;;;;;;4950281;28;20186;-76
2023/02/07 00:12:19;;;;;;;48.40;21.30;;;;;;;;;;4936756;28;20201;-76
2023/02/07 00:14:45;;;;;;;42.30;23.13;;;;;;;;;;4943119;28;20797;-75
2023/02/07 00:17:11;;;;;;;54.65;21.95;;;;;;;;;;4943389;28;20473;-76
2023/02/07 00:19:37;;;;;;;47.13;22.30;;;;;;;;;;4961715;28;20578;-76
2023/02/07 00:22:03;;;;;;;42.75;21.90;;;;;;;;;;4934474;29;20490;-76
2023/02/07 00:24:29;;;;;;;43.93;20.33;;;;;;;;;;4949943;28;20194;-76
2023/02/07 00:26:55;;;;;;;54.43;22.43;;;;;;;;;;4934416;29;20439;-76
2023/02/07 00:29:21;;;;;;;39.40;18.93;;;;;;;;;;4957957;28;20919;-76
2023/02/07 00:31:47;;;;;;;48.92;19.88;;;;;;;;;;4964440;28;20924;-75
2023/02/07 00:34:16;;;;;;;48.17;23.00;;;;;;;;;;4949614;28;20210;-76
2023/02/07 00:36:42;;;;;;;53.47;22.58;;;;;;;;;;4958885;28;20194;-75
2023/02/07 00:39:11;;;;;;;40.72;21.55;;;;;;;;;;4938350;28;20214;-75
2023/02/07 00:41:38;;;;;;;43.53;19.98;;;;;;;;;;4940326;29;20242;-75
2023/02/07 00:44:05;;;;;;;39.15;19.67;;;;;;;;;;4947295;28;20217;-76
2023/02/07 00:46:30;;;;;;;40.67;20.52;;;;;;;;;;4961368;28;20189;-76
2023/02/07 00:48:57;;;;;;;46.07;22.23;;;;;;;;;;4941767;28;20203;-75
2023/02/07 00:51:25;;;;;;;50.22;22.15;;;;;;;;;;4946605;28;20465;-76
2023/02/07 00:53:55;;;;;;;59.42;23.80;;;;;;;;;;4930352;28;20678;-75
2023/02/07 00:56:22;;;;;;;54.05;24.25;;;;;;;;;;4939295;28;20225;-76
2023/02/07 00:58:48;;;;;;;55.17;25.60;;;;;;;;;;4939720;28;20899;-75
2023/02/07 01:01:14;;;;;;;49.88;23.15;;;;;;;;;;4940164;29;20689;-76
2023/02/07 01:03:40;;;;;;;56.42;24.65;;;;;;;;;;4935678;29;20198;-76
2023/02/07 01:06:07;;;;;;;57.72;26.30;;;;;;;;;;4948474;28;20187;-76
2023/02/07 01:08:33;;;;;;;55.78;25.40;;;;;;;;;;4940489;28;20310;-76
2023/02/07 01:11:04;;;;;;;58.28;26.45;;;;;;;;;;4950472;28;20201;-76
2023/02/07 01:13:30;;;;;;;58.75;24.35;;;;;;;;;;4929038;29;20206;-76
2023/02/07 01:15:56;;;;;;;46.75;22.10;;;;;;;;;;4941114;28;20220;-76
2023/02/07 01:18:22;;;;;;;61.87;25.77;;;;;;;;;;4931186;29;20194;-75
2023/02/07 01:20:48;;;;;;;45.97;22.63;;;;;;;;;;4956806;28;20646;-76
2023/02/07 01:23:14;;;;;;;43.03;22.80;;;;;;;;;;4948229;28;20454;-75
2023/02/07 01:25:42;;;;;;;38.78;19.92;;;;;;;;;;4957383;28;20480;-74
2023/02/07 01:28:08;;;;;;;48.35;20.85;;;;;;;;;;4936263;29;20191;-75
2023/02/07 01:30:35;;;;;;;47.42;22.52;;;;;;;;;;4962472;28;20204;-75
2023/02/07 01:33:01;;;;;;;46.28;20.85;;;;;;;;;;4936371;28;20211;-75
2023/02/07 01:35:27;;;;;;;58.90;23.63;;;;;;;;;;4946418;28;20230;-75
2023/02/07 01:37:53;;;;;;;44.47;21.45;;;;;;;;;;4944682;28;20209;-75
2023/02/07 01:40:19;;;;;;;36.03;19.33;;;;;;;;;;4953680;28;20179;-75
2023/02/07 01:42:45;;;;;;;47.42;20.85;;;;;;;;;;4929548;28;20432;-75
2023/02/07 01:45:22;;;;;;;42.78;22.38;;;;;;;;;;4950751;28;20588;-75
2023/02/07 01:47:48;;;;;;;41.90;19.77;;;;;;;;;;4945023;28;20225;-75
2023/02/07 01:50:14;;;;;;;40.90;19.95;;;;;;;;;;4953200;28;20186;-75
2023/02/07 01:52:40;;;;;;;53.60;24.10;;;;;;;;;;4949207;28;20246;-75
2023/02/07 01:55:09;;;;;;;52.65;21.90;;;;;;;;;;4962451;28;20194;-76
2023/02/07 01:57:36;;;;;;;44.75;23.58;;;;;;;;;;4948247;28;20274;-75
2023/02/07 02:00:03;;;;;;;57.95;23.75;;;;;;;;;;4952218;28;20606;-77
2023/02/07 02:02:31;;;;;;;50.15;24.48;;;;;;;;;;4958461;28;20198;-75
2023/02/07 02:04:57;;;;;;;42.58;20.95;;;;;;;;;;4957644;28;20558;-76
2023/02/07 02:07:24;;;;;;;35.38;18.00;;;;;;;;;;4955762;28;20675;-75
2023/02/07 02:09:50;;;;;;;36.65;18.73;;;;;;;;;;4953026;28;20537;-76
2023/02/07 02:12:35;;;;;;;50.83;24.42;;;;;;;;;;4950632;28;20669;-76
2023/02/07 02:15:01;;;;;;;49.90;23.73;;;;;;;;;;4959759;28;20679;-75
2023/02/07 02:17:33;;;;;;;51.83;22.00;;;;;;;;;;4955005;28;20317;-76
2023/02/07 02:20:17;;;;;;;78.45;24.10;;;;;;;;;;4958275;28;20426;-75
2023/02/07 02:22:49;;;;;;;58.33;23.92;;;;;;;;;;4960972;28;20630;-76
2023/02/07 02:25:30;;;;;;;56.17;22.00;;;;;;;;;;4948175;28;20248;-75
2023/02/07 02:28:15;;;;;;;70.75;21.13;;;;;;;;;;4959378;28;20212;-75
2023/02/07 02:30:50;;;;;;;61.03;21.40;;;;;;;;;;4957383;28;20249;-75
2023/02/07 02:33:16;;;;;;;46.10;18.25;;;;;;;;;;4949118;28;20201;-76
2023/02/07 02:36:04;;;;;;;51.03;20.20;;;;;;;;;;4943761;29;20209;-75
2023/02/07 02:38:49;;;;;;;60.92;21.25;;;;;;;;;;4955593;28;20427;-75
2023/02/07 02:41:21;;;;;;;43.50;21.50;;;;;;;;;;4942670;28;20183;-76
2023/02/07 02:43:51;;;;;;;47.80;22.05;;;;;;;;;;4952874;28;20667;-76
2023/02/07 02:46:20;;;;;;;37.65;18.60;;;;;;;;;;4954311;28;20191;-74
2023/02/07 02:48:46;;;;;;;48.15;21.77;;;;;;;;;;4949188;28;20277;-74
2023/02/07 02:51:15;;;;;;;55.10;22.30;;;;;;;;;;4953084;28;20352;-76
2023/02/07 02:53:50;;;;;;;51.05;21.80;;;;;;;;;;4943900;28;20489;-74
2023/02/07 02:56:28;;;;;;;39.17;21.73;;;;;;;;;;4936485;29;20249;-75
2023/02/07 02:58:54;;;;;;;44.40;21.63;;;;;;;;;;4948283;28;20201;-74
2023/02/07 03:01:25;;;;;;;34.70;18.77;;;;;;;;;;4946731;28;20274;-75
2023/02/07 03:04:04;;;;;;;45.80;20.50;;;;;;;;;;4940036;28;20261;-75
2023/02/07 03:06:48;;;;;;;49.70;16.85;;;;;;;;;;4944563;28;20527;-76
2023/02/07 03:09:17;;;;;;;38.63;16.63;;;;;;;;;;4933554;28;20201;-76
2023/02/07 03:11:54;;;;;;;79.82;19.17;;;;;;;;;;4930300;29;20192;-76
2023/02/07 03:14:23;;;;;;;34.72;16.92;;;;;;;;;;4956754;28;20201;-76
2023/02/07 03:16:58;;;;;;;36.70;16.45;;;;;;;;;;4955982;28;20219;-76
2023/02/07 03:19:53;;;;;;;34.83;15.88;;;;;;;;;;4951454;28;20190;-76
2023/02/07 03:22:21;;;;;;;37.80;17.92;;;;;;;;;;4870845;28;20796;-75
2023/02/07 03:24:49;;;;;;;35.80;18.25;;;;;;;;;;4954948;28;20183;-76
2023/02/07 03:27:16;;;;;;;39.17;17.52;;;;;;;;;;4950884;28;20194;-76
2023/02/07 03:29:45;;;;;;;42.22;19.40;;;;;;;;;;4929147;28;20186;-76
2023/02/07 03:32:12;;;;;;;46.42;20.00;;;;;;;;;;4928319;28;20614;-75
2023/02/07 03:34:38;;;;;;;38.28;18.83;;;;;;;;;;4946178;28;20337;-75
2023/02/07 03:37:24;;;;;;;42.90;17.33;;;;;;;;;;4939878;28;20914;-75
2023/02/07 03:39:50;;;;;;;32.00;15.88;;;;;;;;;;4958186;28;20417;-75
2023/02/07 03:42:21;;;;;;;82.10;19.92;;;;;;;;;;4941130;28;20210;-75
2023/02/07 03:44:49;;;;;;;36.33;18.58;;;;;;;;;;4964979;28;20217;-76
2023/02/07 03:47:17;;;;;;;41.22;19.48;;;;;;;;;;4959488;28;20197;-75
2023/02/07 03:49:43;;;;;;;57.45;17.92;;;;;;;;;;4933442;29;20235;-76
2023/02/07 03:52:09;;;;;;;43.63;15.93;;;;;;;;;;4939735;28;20218;-76
2023/02/07 03:54:35;;;;;;;52.05;18.48;;;;;;;;;;4956071;28;20301;-76
2023/02/07 03:57:01;;;;;;;40.13;18.13;;;;;;;;;;4946565;28;20248;-76
2023/02/07 03:59:27;;;;;;;36.03;17.45;;;;;;;;;;4947746;28;20235;-76
2023/02/07 04:01:53;;;;;;;42.53;16.77;;;;;;;;;;4940267;28;20222;-76
2023/02/07 04:04:19;;;;;;;51.45;19.38;;;;;;;;;;4944939;28;20452;-75
2023/02/07 04:06:45;;;;;;;29.80;16.88;;;;;;;;;;4951056;28;20186;-75
2023/02/07 04:09:11;;;;;;;40.93;19.57;;;;;;;;;;4950138;28;20581;-76
2023/02/07 04:11:37;;;;;;;33.33;18.08;;;;;;;;;;4949627;28;20425;-75
2023/02/07 04:14:03;;;;;;;33.73;18.17;;;;;;;;;;4945604;28;20203;-75
2023/02/07 04:16:29;;;;;;;30.70;15.93;;;;;;;;;;4959953;28;20469;-75
2023/02/07 04:18:55;;;;;;;35.25;17.08;;;;;;;;;;4964100;28;20201;-76
2023/02/07 04:21:21;;;;;;;39.13;17.95;;;;;;;;;;4949955;28;20463;-75
2023/02/07 04:23:47;;;;;;;39.23;18.27;;;;;;;;;;4938092;28;20203;-76
2023/02/07 04:26:14;;;;;;;27.00;15.27;;;;;;;;;;4946356;28;20430;-75
2023/02/07 04:28:40;;;;;;;30.95;14.48;;;;;;;;;;4952083;28;20417;-75
2023/02/07 04:31:06;;;;;;;33.38;18.02;;;;;;;;;;4952125;28;20281;-75
2023/02/07 04:33:32;;;;;;;43.83;16.70;;;;;;;;;;4940362;28;20201;-76
2023/02/07 04:35:59;;;;;;;24.73;14.52;;;;;;;;;;4934086;28;20264;-75
2023/02/07 04:38:26;;;;;;;25.15;14.40;;;;;;;;;;4937569;28;20269;-76
2023/02/07 04:40:52;;;;;;;29.38;14.48;;;;;;;;;;4956694;28;20213;-76
2023/02/07 04:43:18;;;;;;;36.88;17.70;;;;;;;;;;4950013;28;20220;-76
2023/02/07 04:45:47;;;;;;;29.73;14.65;;;;;;;;;;4944863;28;20219;-76
2023/02/07 04:48:14;;;;;;;31.95;14.85;;;;;;;;;;4944423;28;20277;-75
2023/02/07 04:50:40;;;;;;;29.92;15.68;;;;;;;;;;4957484;28;20182;-76
2023/02/07 04:53:06;;;;;;;30.75;15.75;;;;;;;;;;4950159;28;20198;-76
2023/02/07 04:55:34;;;;;;;32.08;15.35;;;;;;;;;;4952889;28;20206;-76
2023/02/07 04:58:00;;;;;;;28.52;16.45;;;;;;;;;;4938897;28;20197;-76
2023/02/07 05:00:28;;;;;;;32.00;16.38;;;;;;;;;;4939172;29;20183;-77
2023/02/07 05:02:55;;;;;;;30.77;15.40;;;;;;;;;;4953006;28;20612;-75
2023/02/07 05:05:21;;;;;;;63.55;29.17;;;;;;;;;;4936884;29;20356;-76
2023/02/07 05:07:47;;;;;;;19.93;13.23;;;;;;;;;;4947062;28;20446;-75
2023/02/07 05:10:13;;;;;;;25.40;12.93;;;;;;;;;;4953563;28;20559;-76
2023/02/07 05:12:39;;;;;;;28.98;14.40;;;;;;;;;;4936835;28;20205;-76
2023/02/07 05:15:05;;;;;;;22.55;12.75;;;;;;;;;;4941732;29;20191;-77
2023/02/07 05:17:34;;;;;;;28.30;15.00;;;;;;;;;;4953858;28;20220;-75
2023/02/07 05:20:01;;;;;;;28.20;13.85;;;;;;;;;;4945258;28;20190;-75
2023/02/07 05:22:27;;;;;;;25.83;15.77;;;;;;;;;;4948790;28;20195;-76
2023/02/07 05:24:53;;;;;;;29.88;14.98;;;;;;;;;;4949420;28;20190;-75
2023/02/07 05:27:19;;;;;;;29.92;14.35;;;;;;;;;;4935304;28;20202;-76
2023/02/07 05:29:45;;;;;;;23.13;13.15;;;;;;;;;;4955578;28;20195;-75
2023/02/07 05:34:58;;;;;;;29.63;16.13;;;;;;;;;;4954291;28;20236;-75
2023/02/07 05:37:24;;;;;;;24.13;14.65;;;;;;;;;;4950274;28;20228;-76
2023/02/07 05:39:50;;;;;;;32.15;16.30;;;;;;;;;;4938295;28;20756;-75
2023/02/07 05:42:16;;;;;;;31.00;15.40;;;;;;;;;;4936324;28;20207;-75
2023/02/07 05:44:42;;;;;;;37.50;16.38;;;;;;;;;;4953217;28;20500;-76
2023/02/07 05:47:08;;;;;;;25.27;15.75;;;;;;;;;;4958224;28;20190;-75
2023/02/07 05:49:34;;;;;;;29.17;16.38;;;;;;;;;;4945532;28;20182;-76
2023/02/07 05:52:00;;;;;;;27.65;15.32;;;;;;;;;;4949649;28;20566;-75
2023/02/07 05:54:26;;;;;;;33.70;15.68;;;;;;;;;;4952517;28;20272;-75
2023/02/07 05:56:52;;;;;;;24.65;14.85;;;;;;;;;;4949634;28;20219;-77
2023/02/07 05:59:18;;;;;;;36.00;15.90;;;;;;;;;;4947578;28;20797;-75
2023/02/07 06:01:44;;;;;;;32.13;14.68;;;;;;;;;;4956512;28;20197;-75
2023/02/07 06:04:10;;;;;;;32.40;13.60;;;;;;;;;;4950532;28;20202;-75
2023/02/07 06:06:36;;;;;;;27.65;14.48;;;;;;;;;;4954152;28;20840;-74
2023/02/07 06:09:03;;;;;;;36.83;15.75;;;;;;;;;;4928522;29;20240;-76
2023/02/07 06:11:29;;;;;;;32.53;16.13;;;;;;;;;;4953493;28;20193;-75
2023/02/07 06:13:55;;;;;;;28.40;16.05;;;;;;;;;;4911006;29;20226;-76
2023/02/07 06:16:21;;;;;;;31.70;17.33;;;;;;;;;;4938118;28;20567;-76
2023/02/07 06:18:48;;;;;;;33.10;17.05;;;;;;;;;;4944858;28;20740;-76
2023/02/07 06:21:14;;;;;;;38.25;17.02;;;;;;;;;;4943722;28;20198;-75
2023/02/07 06:23:40;;;;;;;36.08;17.42;;;;;;;;;;4943889;28;20191;-76
2023/02/07 06:26:06;;;;;;;40.40;18.50;;;;;;;;;;4945865;28;20304;-77
2023/02/07 06:28:32;;;;;;;33.45;15.60;;;;;;;;;;4926211;29;20442;-75
2023/02/07 06:30:58;;;;;;;23.07;13.13;;;;;;;;;;4949914;28;20234;-75
2023/02/07 06:33:24;;;;;;;22.88;13.70;;;;;;;;;;4945923;28;20790;-76
2023/02/07 06:35:50;;;;;;;30.42;15.48;;;;;;;;;;4946202;28;20377;-75
2023/02/07 06:38:17;;;;;;;29.08;15.93;;;;;;;;;;4950266;28;20273;-77
2023/02/07 06:40:43;;;;;;;29.30;14.75;;;;;;;;;;4936404;28;20637;-76
2023/02/07 06:43:10;;;;;;;32.25;16.13;;;;;;;;;;4951351;28;20249;-76
2023/02/07 06:45:37;;;;;;;26.95;16.17;;;;;;;;;;4932681;28;20214;-76
2023/02/07 06:48:03;;;;;;;27.75;13.18;;;;;;;;;;4954947;28;20367;-76
2023/02/07 06:50:29;;;;;;;31.85;18.60;;;;;;;;;;4936385;28;20190;-76
2023/02/07 06:53:00;;;;;;;28.70;15.07;;;;;;;;;;4933474;28;20203;-76
2023/02/07 06:55:27;;;;;;;27.73;15.13;;;;;;;;;;4954634;28;20739;-76
2023/02/07 06:57:53;;;;;;;30.92;16.60;;;;;;;;;;4952369;28;20209;-75
2023/02/07 07:00:21;;;;;;;29.03;14.80;;;;;;;;;;4953160;28;20737;-76
2023/02/07 07:02:47;;;;;;;26.05;13.70;;;;;;;;;;4961155;28;21037;-76
2023/02/07 07:05:13;;;;;;;30.00;15.68;;;;;;;;;;4951984;28;20305;-76
2023/02/07 07:07:39;;;;;;;30.63;16.25;;;;;;;;;;4949685;28;20195;-76
2023/02/07 07:10:06;;;;;;;23.88;14.13;;;;;;;;;;4944623;28;20198;-76
2023/02/07 07:12:32;;;;;;;28.05;13.48;;;;;;;;;;4946486;28;20203;-76
2023/02/07 07:14:59;;;;;;;31.90;16.63;;;;;;;;;;4957990;28;20202;-76
2023/02/07 07:17:25;;;;;;;32.17;16.80;;;;;;;;;;4951507;28;20300;-76
2023/02/07 07:19:51;;;;;;;32.53;17.30;;;;;;;;;;4957721;28;20201;-76
2023/02/07 07:22:19;;;;;;;35.85;17.50;;;;;;;;;;4929736;29;20198;-76
2023/02/07 07:24:45;;;;;;;41.03;18.80;;;;;;;;;;4927821;29;20277;-77
2023/02/07 07:27:11;;;;;;;29.20;15.65;;;;;;;;;;4947833;28;20198;-77
2023/02/07 07:29:37;;;;;;;27.90;14.55;;;;;;;;;;4951315;28;20201;-76
2023/02/07 07:32:03;;;;;;;42.85;16.38;;;;;;;;;;4948335;28;20414;-75
2023/02/07 07:34:29;;;;;;;23.05;11.40;;;;;;;;;;4945427;28;20682;-75
2023/02/07 07:36:55;;;;;;;28.27;16.88;;;;;;;;;;4934246;29;20250;-76
2023/02/07 07:39:24;;;;;;;22.50;14.75;;;;;;;;;;4944020;28;20213;-76
2023/02/07 07:41:51;;;;;;;22.77;13.77;;;;;;;;;;4952498;28;20214;-77
2023/02/07 07:44:17;;;;;;;30.60;15.40;;;;;;;;;;4944933;28;20214;-76
2023/02/07 07:46:43;;;;;;;26.70;15.60;;;;;;;;;;4956445;28;20622;-76
2023/02/07 07:49:09;;;;;;;34.97;17.45;;;;;;;;;;4952515;28;20269;-75
2023/02/07 07:51:35;;;;;;;27.88;16.00;;;;;;;;;;4947546;28;20385;-76
2023/02/07 07:54:01;;;;;;;25.55;13.43;;;;;;;;;;4947216;28;20196;-76
2023/02/07 07:56:31;;;;;;;34.35;20.02;;;;;;;;;;4938191;28;20206;-77
2023/02/07 07:58:57;;;;;;;32.65;21.02;;;;;;;;;;4956282;28;20286;-75
2023/02/07 08:01:23;;;;;;;26.73;17.05;;;;;;;;;;4952604;28;20179;-76
2023/02/07 08:03:49;;;;;;;28.77;17.80;;;;;;;;;;4953309;28;20215;-76
2023/02/07 08:06:15;;;;;;;36.50;19.80;;;;;;;;;;4952020;28;20197;-76
2023/02/07 08:08:41;;;;;;;32.17;18.35;;;;;;;;;;4952531;28;20429;-76
2023/02/07 08:11:09;;;;;;;25.90;15.80;;;;;;;;;;4952152;28;20293;-78
2023/02/07 08:13:35;;;;;;;21.13;13.63;;;;;;;;;;4947406;28;20437;-77
2023/02/07 08:16:02;;;;;;;27.50;13.88;;;;;;;;;;4951707;28;20206;-76
2023/02/07 08:18:28;;;;;;;27.55;16.63;;;;;;;;;;4945336;28;20710;-74
2023/02/07 08:20:54;;;;;;;25.80;15.10;;;;;;;;;;4950161;28;20189;-76
2023/02/07 08:23:21;;;;;;;36.90;16.15;;;;;;;;;;4934632;28;20231;-76
2023/02/07 08:25:48;;;;;;;23.92;15.35;;;;;;;;;;4959816;28;20205;-77
2023/02/07 08:28:14;;;;;;;30.13;17.20;;;;;;;;;;4926279;28;20616;-75
2023/02/07 08:30:41;;;;;;;27.05;17.30;;;;;;;;;;4947433;28;20214;-76
2023/02/07 08:33:07;;;;;;;25.00;14.32;;;;;;;;;;4948602;28;20207;-77
2023/02/07 08:35:33;;;;;;;16.88;11.00;;;;;;;;;;4950492;28;20640;-76
2023/02/07 08:37:59;;;;;;;20.35;12.27;;;;;;;;;;4956057;28;20610;-76
2023/02/07 08:40:31;;;;;;;21.38;13.65;;;;;;;;;;4946201;28;20219;-76
2023/02/07 08:42:57;;;;;;;19.65;12.77;;;;;;;;;;4924382;28;20569;-76
2023/02/07 08:45:23;;;;;;;21.58;13.75;;;;;;;;;;4964529;28;20237;-77
2023/02/07 08:47:49;;;;;;;20.45;11.93;;;;;;;;;;4957530;28;20719;-77
2023/02/07 08:50:15;;;;;;;26.48;14.02;;;;;;;;;;4962700;28;20187;-77
2023/02/07 08:52:42;;;;;;;23.35;12.65;;;;;;;;;;4955646;28;20192;-75
2023/02/07 08:55:08;;;;;;;26.52;13.38;;;;;;;;;;4941025;28;20194;-75
2023/02/07 08:57:34;;;;;;;19.77;12.43;;;;;;;;;;4955293;28;20205;-76
2023/02/07 09:00:00;;;;;;;21.33;13.45;;;;;;;;;;4952874;28;20198;-76
2023/02/07 09:02:27;;;;;;;20.90;13.73;;;;;;;;;;4949982;28;20557;-77
2023/02/07 09:04:54;;;;;;;21.85;12.77;;;;;;;;;;4945487;28;20714;-75
2023/02/07 09:07:20;;;;;;;19.10;12.85;;;;;;;;;;4950257;28;20204;-76
2023/02/07 09:09:47;;;;;;;14.45;11.23;;;;;;;;;;4947765;28;20241;-76
2023/02/07 09:12:13;;;;;;;18.38;12.88;;;;;;;;;;4954907;28;20273;-77
2023/02/07 09:14:39;;;;;;;19.50;11.70;;;;;;;;;;4928153;28;20457;-75
2023/02/07 09:17:06;;;;;;;17.98;11.70;;;;;;;;;;4941572;28;20207;-75
2023/02/07 09:19:35;;;;;;;19.10;13.00;;;;;;;;;;4947174;28;20579;-75
2023/02/07 09:22:03;;;;;;;19.13;13.85;;;;;;;;;;4939468;28;20186;-77
2023/02/07 09:24:32;;;;;;;17.17;12.15;;;;;;;;;;4949758;28;20229;-76
2023/02/07 09:27:01;;;;;;;15.38;11.27;;;;;;;;;;4934886;29;20189;-76
2023/02/07 09:29:27;;;;;;;10.68;9.45;;;;;;;;;;4953646;28;20264;-77
2023/02/07 09:31:54;;;;;;;9.68;8.40;;;;;;;;;;4956868;28;20193;-76
2023/02/07 09:34:26;;;;;;;8.43;7.63;;;;;;;;;;4950607;28;20598;-77
2023/02/07 09:36:56;;;;;;;8.13;7.37;;;;;;;;;;4948568;28;20461;-78
2023/02/07 09:39:22;;;;;;;7.90;7.10;;;;;;;;;;4947527;28;20461;-77
2023/02/07 09:42:04;;;;;;;7.77;7.00;;;;;;;;;;4954277;28;20468;-77
2023/02/07 09:44:33;;;;;;;6.50;6.03;;;;;;;;;;4957008;28;20453;-76
2023/02/07 09:47:02;;;;;;;6.63;6.07;;;;;;;;;;4956262;28;20428;-76
2023/02/07 09:49:37;;;;;;;6.27;5.80;;;;;;;;;;4955961;28;20421;-76
2023/02/07 09:52:04;;;;;;;6.63;6.03;;;;;;;;;;4961337;28;21005;-75
2023/02/07 09:54:50;;;;;;;10.07;6.40;;;;;;;;;;4947898;28;20428;-76
2023/02/07 09:57:37;;;;;;;7.47;6.73;;;;;;;;;;4934930;28;20475;-76
2023/02/07 10:00:09;;;;;;;9.63;6.80;;;;;;;;;;4940727;28;20449;-76
2023/02/07 10:03:01;;;;;;;6.90;6.40;;;;;;;;;;4922107;29;20464;-75
2023/02/07 10:05:31;;;;;;;12.40;9.40;;;;;;;;;;4915865;29;20494;-76
2023/02/07 10:07:57;;;;;;;11.17;7.30;;;;;;;;;;4954992;28;20449;-76
2023/02/07 10:10:31;;;;;;;8.67;7.60;;;;;;;;;;4951989;28;20912;-76
2023/02/07 10:13:04;;;;;;;7.50;7.00;;;;;;;;;;4943950;28;20965;-77
2023/02/07 10:15:33;;;;;;;8.20;7.43;;;;;;;;;;4929696;28;20444;-76
2023/02/07 10:18:18;;;;;;;7.20;6.70;;;;;;;;;;4941370;28;20461;-75
2023/02/07 10:21:03;;;;;;;12.23;7.70;;;;;;;;;;4946540;28;20859;-76
2023/02/07 10:23:31;;;;;;;7.80;7.10;;;;;;;;;;4960844;28;20448;-75
2023/02/07 10:26:16;;;;;;;7.40;6.87;;;;;;;;;;4948403;28;20433;-77
2023/02/07 10:28:58;;;;;;;8.07;7.33;;;;;;;;;;4957881;28;20437;-77
2023/02/07 10:31:25;;;;;;;8.50;6.97;;;;;;;;;;4948520;28;20805;-76
2023/02/07 10:33:58;;;;;;;8.50;7.37;;;;;;;;;;4948667;28;20452;-78
2023/02/07 10:36:25;;;;;;;10.03;7.90;;;;;;;;;;4928428;29;21001;-77
2023/02/07 10:39:03;;;;;;;14.53;13.07;;;;;;;;;;4945791;28;20585;-76
2023/02/07 10:41:40;;;;;;;8.33;7.53;;;;;;;;;;4956151;28;20503;-76
2023/02/07 10:44:09;;;;;;;7.80;7.13;;;;;;;;;;4950011;28;20455;-77
2023/02/07 10:46:36;;;;;;;12.27;7.30;;;;;;;;;;4956023;28;20984;-76
2023/02/07 10:49:02;;;;;;;8.37;7.57;;;;;;;;;;4958136;28;20856;-76
2023/02/07 10:51:31;;;;;;;7.87;7.23;;;;;;;;;;4947401;28;20493;-74
2023/02/07 10:54:03;;;;;;;7.93;7.20;;;;;;;;;;4944561;28;20818;-76
2023/02/07 10:56:30;;;;;;;8.77;7.63;;;;;;;;;;4940013;28;20462;-73
2023/02/07 10:58:57;;;;;;;10.43;8.00;;;;;;;;;;4958273;28;20521;-78
2023/02/07 11:01:25;;;;;;;7.90;7.20;;;;;;;;;;4950599;28;20434;-77
2023/02/07 11:03:52;;;;;;;9.80;7.73;;;;;;;;;;4955916;28;20433;-77
2023/02/07 11:06:31;;;;;;;9.87;8.77;;;;;;;;;;4945212;28;20476;-76
2023/02/07 11:09:19;;;;;;;8.10;7.23;;;;;;;;;;4940514;28;20800;-77
2023/02/07 11:11:49;;;;;;;8.83;7.60;;;;;;;;;;4951161;28;20509;-76
2023/02/07 11:14:17;;;;;;;10.83;8.57;;;;;;;;;;4953260;28;20810;-78
2023/02/07 11:16:44;;;;;;;13.77;9.47;;;;;;;;;;4937828;28;20475;-77
2023/02/07 11:19:14;;;;;;;8.60;7.90;;;;;;;;;;4933436;29;20457;-79
2023/02/07 11:21:44;;;;;;;7.23;6.70;;;;;;;;;;4952770;28;20884;-76
2023/02/07 11:24:13;;;;;;;7.60;7.10;;;;;;;;;;4943187;28;20430;-77
2023/02/07 11:26:47;;;;;;;6.77;6.33;;;;;;;;;;4953827;28;20435;-77
2023/02/07 11:29:15;;;;;;;7.63;6.97;;;;;;;;;;4941242;28;20438;-78
2023/02/07 11:31:42;;;;;;;8.67;7.70;;;;;;;;;;4949755;28;20808;-77
2023/02/07 11:34:27;;;;;;;11.47;8.70;;;;;;;;;;4948437;28;20434;-77
2023/02/07 11:36:53;;;;;;;8.80;7.63;;;;;;;;;;4920725;28;20549;-78
2023/02/07 11:39:20;;;;;;;7.23;6.83;;;;;;;;;;4954637;28;20812;-78
2023/02/07 11:41:54;;;;;;;7.73;7.13;;;;;;;;;;4954062;28;20496;-78
2023/02/07 11:44:23;;;;;;;7.53;6.93;;;;;;;;;;4958671;28;20460;-77
2023/02/07 11:46:49;;;;;;;9.60;7.63;;;;;;;;;;4951675;28;20460;-77
2023/02/07 11:49:27;;;;;;;10.00;8.03;;;;;;;;;;4951187;28;20425;-76
2023/02/07 11:51:56;;;;;;;7.50;6.93;;;;;;;;;;4951326;28;21383;-78
2023/02/07 11:54:22;;;;;;;6.77;6.47;;;;;;;;;;4950105;28;20944;-76
2023/02/07 11:56:52;;;;;;;6.97;6.57;;;;;;;;;;4941441;28;20561;-76
2023/02/07 11:59:20;;;;;;;8.60;7.87;;;;;;;;;;4942877;28;20877;-79
2023/02/07 12:01:54;;;;;;;6.70;6.40;;;;;;;;;;4954224;28;20930;-78
2023/02/07 12:04:40;;;;;;;6.63;6.33;;;;;;;;;;4945896;28;20486;-78
2023/02/07 12:07:08;;;;;;;12.73;7.77;;;;;;;;;;4951394;28;20642;-80
2023/02/07 12:09:37;;;;;;;6.47;6.07;;;;;;;;;;4950380;28;20620;-76
2023/02/07 12:12:05;;;;;;;7.00;6.60;;;;;;;;;;4949238;28;20679;-79
2023/02/07 12:14:48;;;;;;;7.20;6.70;;;;;;;;;;4950352;28;20454;-77
2023/02/07 12:17:20;;;;;;;6.83;6.33;;;;;;;;;;4957480;28;20469;-76
2023/02/07 12:19:51;;;;;;;8.83;7.03;;;;;;;;;;4951288;28;20895;-77
2023/02/07 12:22:38;;;;;;;7.00;6.60;;;;;;;;;;4928261;29;20973;-78
2023/02/07 12:25:14;;;;;;;7.30;6.90;;;;;;;;;;4956065;28;20421;-77
2023/02/07 12:27:42;;;;;;;7.50;7.00;;;;;;;;;;4952756;28;20440;-78
2023/02/07 12:30:32;;;;;;;6.97;6.47;;;;;;;;;;4957183;28;20469;-76
2023/02/07 12:33:03;;;;;;;7.87;6.03;;;;;;;;;;4948672;28;20437;-75
2023/02/07 12:35:32;;;;;;;7.30;6.90;;;;;;;;;;4957072;28;20431;-79
2023/02/07 12:38:01;;;;;;;8.07;7.47;;;;;;;;;;4942650;28;20493;-76
2023/02/07 12:40:34;;;;;;;6.57;6.20;;;;;;;;;;4953967;28;20436;-77
2023/02/07 12:43:07;;;;;;;6.80;6.50;;;;;;;;;;4960454;28;21008;-77
2023/02/07 12:46:12;;;;;;;6.80;6.40;;;;;;;;;;4957551;28;20818;-78
2023/02/07 12:48:38;;;;;;;6.77;6.43;;;;;;;;;;4898732;29;20443;-78
2023/02/07 12:51:04;;;;;;;7.97;7.20;;;;;;;;;;4928544;28;20450;-77
2023/02/07 12:53:36;;;;;;;7.50;6.90;;;;;;;;;;4956981;28;20437;-79
2023/02/07 12:56:13;;;;;;;6.33;6.00;;;;;;;;;;4956686;28;20470;-78
2023/02/07 12:58:56;;;;;;;6.93;6.43;;;;;;;;;;4959390;28;20444;-77
2023/02/07 13:01:22;;;;;;;6.90;6.50;;;;;;;;;;4952158;28;20430;-76
2023/02/07 13:04:07;;;;;;;8.30;7.50;;;;;;;;;;4942674;29;20569;-76
2023/02/07 13:06:52;;;;;;;7.87;6.93;;;;;;;;;;4933405;29;20932;-76
2023/02/07 13:09:31;;;;;;;7.03;6.10;;;;;;;;;;4944597;28;20651;-77
2023/02/07 13:12:00;;;;;;;13.63;6.60;;;;;;;;;;4949131;28;20438;-78
2023/02/07 13:14:45;;;;;;;7.23;6.53;;;;;;;;;;4950282;28;20465;-77
2023/02/07 13:17:25;;;;;;;7.23;6.67;;;;;;;;;;4936011;29;20504;-78
2023/02/07 13:20:00;;;;;;;6.47;6.17;;;;;;;;;;4953263;28;20445;-77
2023/02/07 13:22:32;;;;;;;7.60;6.83;;;;;;;;;;4947137;28;20425;-77
2023/02/07 13:25:02;;;;;;;7.53;6.90;;;;;;;;;;4953725;28;20496;-78
2023/02/07 13:27:32;;;;;;;7.40;6.80;;;;;;;;;;4944514;28;20473;-78
2023/02/07 13:30:03;;;;;;;6.50;6.10;;;;;;;;;;4947430;28;20959;-78
2023/02/07 13:32:29;;;;;;;7.10;6.70;;;;;;;;;;4936382;28;20500;-80
2023/02/07 13:34:59;;;;;;;6.97;6.47;;;;;;;;;;4948786;28;20454;-78
2023/02/07 13:37:35;;;;;;;7.10;6.60;;;;;;;;;;4958323;28;20473;-77
2023/02/07 13:40:07;;;;;;;7.40;6.80;;;;;;;;;;4957210;28;21027;-78
2023/02/07 13:42:36;;;;;;;7.77;7.20;;;;;;;;;;4933745;28;21210;-78
2023/02/07 13:45:06;;;;;;;7.07;6.77;;;;;;;;;;4948438;28;20462;-78
2023/02/07 13:47:38;;;;;;;6.13;5.67;;;;;;;;;;4954221;28;20937;-77
2023/02/07 13:50:11;;;;;;;13.10;8.47;;;;;;;;;;4942479;28;20453;-77
2023/02/07 13:52:54;;;;;;;7.07;6.43;;;;;;;;;;4945474;29;20436;-77
2023/02/07 13:55:22;;;;;;;8.33;7.63;;;;;;;;;;4949766;28;20441;-76
2023/02/07 14:00:53;;;;;;;7.23;6.50;;;;;;;;;;4952119;28;20796;-76
2023/02/07 14:03:21;;;;;;;7.57;7.07;;;;;;;;;;4946697;28;20743;-77
2023/02/07 14:05:47;;;;;;;8.83;6.27;;;;;;;;;;4959979;28;20480;-76
2023/02/07 14:08:13;;;;;;;7.30;6.80;;;;;;;;;;4948669;28;20632;-76
2023/02/07 14:10:41;;;;;;;6.93;6.53;;;;;;;;;;4949507;28;20449;-78
2023/02/07 14:13:28;;;;;;;8.47;6.17;;;;;;;;;;4955364;28;20448;-75
2023/02/07 14:16:08;;;;;;;6.77;6.33;;;;;;;;;;4935900;29;20473;-78
2023/02/07 14:18:39;;;;;;;8.23;7.53;;;;;;;;;;4954719;28;20667;-77
2023/02/07 14:21:21;;;;;;;7.93;7.23;;;;;;;;;;4956824;28;20461;-77
2023/02/07 14:24:06;;;;;;;7.03;6.57;;;;;;;;;;4958103;28;20528;-75
2023/02/07 14:26:39;;;;;;;7.83;7.13;;;;;;;;;;4956732;28;20524;-78
2023/02/07 14:29:27;;;;;;;6.97;6.37;;;;;;;;;;4941259;28;20430;-77
2023/02/07 14:32:13;;;;;;;7.10;6.50;;;;;;;;;;4956051;28;20427;-78
2023/02/07 14:34:58;;;;;;;6.73;6.33;;;;;;;;;;4940342;28;20543;-76
2023/02/07 14:37:36;;;;;;;7.47;6.57;;;;;;;;;;4964637;28;20449;-76
2023/02/07 14:40:06;;;;;;;7.50;6.57;;;;;;;;;;4954798;28;20438;-78
2023/02/07 14:42:33;;;;;;;7.50;6.93;;;;;;;;;;4960248;28;20448;-77
2023/02/07 14:44:59;;;;;;;6.97;6.40;;;;;;;;;;4954309;28;20462;-77